Time;durP1;ratioP1;P1;durP2;ratioP2;P2;SDS_P1;SDS_P2;PMS_P1;PMS_P2;Temp;Humidity;BMP_temperature;BMP_pressure;BME280_temperature;BME280_humidity;BME280_pressure;Samples;Min_cycle;Max_cycle;Signal;HPM_P1;HPM_P2
2022/02/12 00:02:23;;;;;;;14.70;2.85;;;3.60;97.90;;;;;;5011320;28;20116;-74
2022/02/12 00:04:48;;;;;;;17.00;3.25;;;3.60;97.80;;;;;;5010623;28;20076;-75
2022/02/12 00:07:14;;;;;;;16.58;3.63;;;3.60;97.80;;;;;;5011111;28;20034;-74
2022/02/12 00:09:39;;;;;;;15.38;2.70;;;3.60;97.80;;;;;;5010924;28;20034;-74
2022/02/12 00:12:05;;;;;;;12.88;3.10;;;3.60;97.80;;;;;;5011662;28;20034;-75
2022/02/12 00:14:31;;;;;;;14.55;3.50;;;3.50;97.80;;;;;;4993751;28;20092;-75
2022/02/12 00:16:56;;;;;;;13.75;3.40;;;3.50;98.10;;;;;;5011084;28;20403;-75
2022/02/12 00:19:23;;;;;;;10.73;3.10;;;3.40;97.90;;;;;;5011146;28;20449;-75
2022/02/12 00:21:48;;;;;;;11.70;3.22;;;3.40;98.00;;;;;;5011185;28;20041;-75
2022/02/12 00:24:14;;;;;;;14.32;2.40;;;3.30;98.20;;;;;;5011050;28;20352;-75
2022/02/12 00:26:39;;;;;;;21.50;3.42;;;3.30;98.30;;;;;;5011104;28;20053;-75
2022/02/12 00:29:05;;;;;;;12.52;3.03;;;3.30;98.20;;;;;;4993157;28;20069;-74
2022/02/12 00:31:31;;;;;;;10.07;2.83;;;3.30;98.10;;;;;;4993444;28;20105;-76
2022/02/12 00:33:56;;;;;;;23.17;4.20;;;3.20;98.10;;;;;;5010717;28;20444;-75
2022/02/12 00:36:22;;;;;;;15.75;3.58;;;3.20;98.30;;;;;;5011086;28;20033;-75
2022/02/12 00:38:50;;;;;;;20.00;3.25;;;3.10;98.30;;;;;;5010614;28;20038;-76
2022/02/12 00:41:15;;;;;;;16.35;3.38;;;3.20;98.40;;;;;;5010789;28;20045;-76
2022/02/12 00:43:41;;;;;;;16.75;2.85;;;3.10;98.30;;;;;;5010523;28;20034;-76
2022/02/12 00:46:06;;;;;;;16.63;3.45;;;3.10;98.40;;;;;;5010479;28;20079;-76
2022/02/12 00:48:32;;;;;;;20.50;2.88;;;3.10;98.40;;;;;;4993321;28;20120;-76
2022/02/12 00:50:59;;;;;;;16.60;3.38;;;3.10;98.30;;;;;;5010323;28;20032;-75
2022/02/12 00:53:26;;;;;;;17.15;3.22;;;3.00;98.30;;;;;;4992978;28;20144;-76
2022/02/12 00:55:52;;;;;;;16.23;3.20;;;3.00;98.40;;;;;;4993052;28;20341;-75
2022/02/12 00:58:18;;;;;;;14.15;3.13;;;3.10;98.40;;;;;;5010478;28;20729;-75
2022/02/12 01:00:44;;;;;;;19.75;3.20;;;3.20;98.40;;;;;;4992941;28;20026;-76
2022/02/12 01:03:10;;;;;;;16.02;2.95;;;3.10;98.30;;;;;;5010701;28;20033;-75
2022/02/12 01:05:36;;;;;;;9.48;2.67;;;3.10;98.40;;;;;;5010344;28;20450;-75
2022/02/12 01:08:03;;;;;;;15.90;3.10;;;3.00;98.30;;;;;;5010130;28;20075;-75
2022/02/12 01:10:29;;;;;;;15.07;3.20;;;3.00;98.50;;;;;;5010397;28;20104;-76
2022/02/12 01:12:55;;;;;;;9.60;2.80;;;3.00;98.50;;;;;;5010296;28;20121;-73
2022/02/12 01:15:20;;;;;;;10.63;2.70;;;2.90;98.50;;;;;;5010690;28;20101;-75
2022/02/12 01:17:46;;;;;;;14.60;3.05;;;2.90;98.50;;;;;;4995511;28;20026;-74
2022/02/12 01:20:12;;;;;;;11.93;2.90;;;3.00;98.60;;;;;;5014144;28;20034;-74
2022/02/12 01:22:38;;;;;;;15.80;3.25;;;3.00;98.50;;;;;;5014028;28;20060;-76
2022/02/12 01:25:04;;;;;;;16.05;3.28;;;2.90;98.60;;;;;;4996606;28;20038;-76
2022/02/12 01:27:29;;;;;;;12.02;3.08;;;3.00;98.70;;;;;;5014623;28;20116;-76
2022/02/12 01:29:55;;;;;;;18.10;3.70;;;2.90;98.60;;;;;;4996364;28;20124;-75
2022/02/12 01:32:21;;;;;;;17.42;3.38;;;3.00;98.60;;;;;;5014037;28;20398;-74
2022/02/12 01:34:47;;;;;;;12.75;3.20;;;2.90;98.50;;;;;;5013878;28;20121;-74
2022/02/12 01:37:12;;;;;;;9.85;3.30;;;2.90;98.60;;;;;;5013702;28;20646;-76
2022/02/12 01:39:38;;;;;;;20.70;3.88;;;2.90;98.70;;;;;;5013664;28;20458;-75
2022/02/12 01:42:04;;;;;;;10.77;2.67;;;2.90;98.80;;;;;;5014172;28;20101;-75
2022/02/12 01:44:33;;;;;;;20.67;4.25;;;2.90;98.70;;;;;;5013832;28;20029;-75
2022/02/12 01:46:59;;;;;;;11.32;3.45;;;2.90;98.70;;;;;;4995893;28;20128;-75
2022/02/12 01:49:25;;;;;;;12.45;3.88;;;2.90;98.70;;;;;;5013447;28;20041;-76
2022/02/12 01:51:51;;;;;;;13.55;3.25;;;2.90;98.70;;;;;;5013679;28;20374;-75
2022/02/12 01:54:17;;;;;;;16.83;3.75;;;2.90;98.80;;;;;;5013999;28;20049;-76
2022/02/12 01:56:45;;;;;;;14.60;3.67;;;2.80;98.70;;;;;;5013645;28;20262;-76
2022/02/12 01:59:11;;;;;;;19.48;3.42;;;2.90;98.90;;;;;;5013454;28;20042;-75
2022/02/12 02:01:37;;;;;;;13.88;4.70;;;2.80;98.80;;;;;;5013380;28;20117;-75
2022/02/12 02:04:03;;;;;;;10.68;3.85;;;2.90;98.90;;;;;;4995914;28;20185;-75
2022/02/12 02:06:29;;;;;;;13.35;3.45;;;2.90;98.80;;;;;;5013710;28;20033;-75
2022/02/12 02:08:54;;;;;;;12.90;3.65;;;2.80;98.80;;;;;;5013133;28;20038;-76
2022/02/12 02:11:21;;;;;;;13.95;3.95;;;2.80;98.70;;;;;;4996149;28;20048;-77
2022/02/12 02:13:47;;;;;;;14.50;3.63;;;2.80;98.80;;;;;;5013223;28;20034;-73
2022/02/12 02:16:15;;;;;;;16.63;3.75;;;2.80;98.70;;;;;;5013290;28;20042;-75
2022/02/12 02:18:41;;;;;;;12.55;2.97;;;2.80;98.80;;;;;;5013033;28;20120;-75
2022/02/12 02:21:07;;;;;;;13.02;3.10;;;2.90;98.80;;;;;;5013410;28;20189;-75
2022/02/12 02:23:35;;;;;;;10.40;2.63;;;2.80;98.70;;;;;;5012957;28;20038;-75
2022/02/12 02:26:02;;;;;;;21.10;3.38;;;2.80;98.80;;;;;;4995464;28;20487;-75
2022/02/12 02:28:27;;;;;;;18.63;3.42;;;2.80;98.80;;;;;;5012414;28;20034;-75
2022/02/12 02:30:53;;;;;;;10.48;3.28;;;2.80;98.80;;;;;;5012964;28;20048;-75
2022/02/12 02:33:19;;;;;;;11.40;3.03;;;2.80;98.70;;;;;;5013265;28;20104;-75
2022/02/12 02:35:46;;;;;;;9.88;3.10;;;2.70;98.70;;;;;;5012652;28;20026;-76
2022/02/12 02:38:14;;;;;;;12.57;3.70;;;2.70;98.90;;;;;;5012858;28;20045;-76
2022/02/12 02:40:42;;;;;;;12.95;3.28;;;2.70;98.80;;;;;;5012725;28;20112;-76
2022/02/12 02:43:08;;;;;;;12.25;3.13;;;2.60;98.80;;;;;;5012759;28;20099;-77
2022/02/12 02:45:35;;;;;;;9.23;2.65;;;2.70;98.80;;;;;;5012629;28;20045;-75
2022/02/12 02:48:03;;;;;;;17.58;3.38;;;2.70;98.80;;;;;;5013163;28;20040;-75
2022/02/12 02:56:13;;;;;;;15.95;3.72;;;2.60;98.80;;;;;;4989982;28;20026;-76
2022/02/12 02:58:42;;;;;;;15.43;3.17;;;2.50;98.80;;;;;;4995094;28;20464;-76
2022/02/12 03:01:11;;;;;;;21.00;3.33;;;2.50;98.80;;;;;;5012228;28;20042;-75
2022/02/12 03:03:38;;;;;;;16.52;3.78;;;2.50;98.80;;;;;;4994945;28;20411;-76
2022/02/12 03:06:04;;;;;;;16.70;3.57;;;2.50;98.90;;;;;;5012735;28;20467;-75
2022/02/12 03:08:30;;;;;;;9.73;3.50;;;2.60;99.00;;;;;;5012074;28;20037;-74
2022/02/12 03:10:57;;;;;;;12.27;2.90;;;2.70;98.90;;;;;;5012262;28;20045;-76
2022/02/12 03:13:23;;;;;;;9.93;3.38;;;2.60;98.80;;;;;;5012034;28;20167;-76
2022/02/12 03:15:49;;;;;;;12.07;2.80;;;2.60;98.70;;;;;;5012032;28;20470;-76
2022/02/12 03:18:14;;;;;;;12.95;3.22;;;2.50;98.80;;;;;;5012357;28;20034;-76
2022/02/12 03:20:40;;;;;;;12.40;3.10;;;2.40;98.90;;;;;;5011821;28;20034;-75
2022/02/12 03:23:07;;;;;;;25.73;3.85;;;2.50;98.90;;;;;;5011774;28;20065;-76
2022/02/12 03:25:32;;;;;;;14.63;2.70;;;2.50;98.90;;;;;;4994286;28;20393;-76
2022/02/12 03:28:02;;;;;;;19.75;3.15;;;2.70;98.90;;;;;;5011830;28;20029;-76
2022/02/12 03:30:31;;;;;;;14.60;3.40;;;2.40;98.70;;;;;;4994767;28;20036;-75
2022/02/12 03:32:57;;;;;;;12.70;2.40;;;2.60;99.00;;;;;;4994199;28;20026;-75
2022/02/12 03:35:23;;;;;;;14.05;3.35;;;2.40;98.90;;;;;;5011737;28;20297;-75
2022/02/12 03:37:51;;;;;;;18.00;3.53;;;2.40;99.10;;;;;;4994205;28;20109;-75
2022/02/12 03:40:18;;;;;;;9.00;2.80;;;2.50;99.20;;;;;;5010733;28;20026;-75
2022/02/12 03:42:44;;;;;;;13.48;3.40;;;2.50;99.10;;;;;;4994055;28;20113;-75
2022/02/12 03:45:10;;;;;;;14.73;3.38;;;2.50;98.90;;;;;;5012010;28;20025;-75
2022/02/12 03:47:36;;;;;;;20.35;3.30;;;2.40;99.00;;;;;;5011336;28;20026;-76
2022/02/12 03:50:03;;;;;;;19.33;3.50;;;2.40;98.90;;;;;;5011288;28;20041;-75
2022/02/12 03:52:29;;;;;;;15.48;3.05;;;2.30;99.00;;;;;;5011421;28;20475;-75
2022/02/12 03:54:54;;;;;;;8.48;2.88;;;2.30;99.00;;;;;;5011311;28;20339;-76
2022/02/12 03:57:20;;;;;;;13.23;2.97;;;2.30;99.10;;;;;;4994274;28;20073;-76
2022/02/12 03:59:45;;;;;;;15.95;3.40;;;2.30;99.20;;;;;;5011360;28;20030;-75
2022/02/12 04:02:11;;;;;;;17.70;2.95;;;2.40;99.20;;;;;;5011355;28;20454;-75
2022/02/12 04:04:37;;;;;;;11.38;2.38;;;2.30;99.30;;;;;;5011004;28;20022;-75
2022/02/12 04:07:03;;;;;;;12.50;3.30;;;2.40;99.50;;;;;;5011102;28;20535;-75
2022/02/12 04:09:29;;;;;;;14.95;3.47;;;2.40;99.50;;;;;;5011690;28;20040;-75
2022/02/12 04:11:55;;;;;;;14.75;3.22;;;2.50;99.50;;;;;;5011142;28;20342;-75
2022/02/12 04:14:21;;;;;;;19.38;3.28;;;2.50;99.50;;;;;;5010999;28;20506;-75
2022/02/12 04:16:47;;;;;;;19.42;3.08;;;2.50;99.50;;;;;;5010985;28;20412;-76
2022/02/12 04:19:13;;;;;;;21.08;2.67;;;2.50;99.40;;;;;;4993587;28;20053;-76
2022/02/12 04:21:39;;;;;;;17.10;3.35;;;2.50;99.40;;;;;;4993795;28;20045;-75
2022/02/12 04:24:04;;;;;;;12.85;3.60;;;2.50;99.40;;;;;;5011028;28;20463;-75
2022/02/12 04:26:30;;;;;;;17.17;3.63;;;2.50;99.50;;;;;;5010904;28;20430;-75
2022/02/12 04:28:56;;;;;;;9.02;3.22;;;2.50;99.30;;;;;;4993414;28;20049;-76
2022/02/12 04:31:23;;;;;;;9.63;2.65;;;2.60;99.40;;;;;;5010812;28;20479;-76
2022/02/12 04:33:49;;;;;;;12.75;3.47;;;2.50;99.20;;;;;;5010615;28;20104;-76
2022/02/12 04:36:15;;;;;;;18.98;3.35;;;2.70;99.30;;;;;;5010995;28;20029;-75
2022/02/12 04:38:40;;;;;;;12.63;3.00;;;2.60;99.10;;;;;;5010947;28;20041;-75
2022/02/12 04:41:06;;;;;;;16.20;3.70;;;2.50;99.20;;;;;;5010856;28;20464;-75
2022/02/12 04:43:32;;;;;;;12.40;3.50;;;2.50;99.20;;;;;;5010575;28;20059;-75
2022/02/12 04:45:57;;;;;;;22.08;3.75;;;2.40;99.20;;;;;;5010416;28;20495;-75
2022/02/12 04:48:24;;;;;;;12.65;2.88;;;2.40;99.20;;;;;;4994234;28;20105;-74
2022/02/12 04:50:49;;;;;;;11.57;2.88;;;2.40;99.20;;;;;;5012962;28;20448;-75
2022/02/12 04:53:15;;;;;;;15.32;2.70;;;2.40;99.20;;;;;;5016916;28;20037;-74
2022/02/12 04:55:41;;;;;;;10.93;3.10;;;2.40;99.20;;;;;;5017033;28;20029;-76
2022/02/12 04:58:06;;;;;;;10.00;3.00;;;2.30;99.30;;;;;;5017335;28;20026;-76
2022/02/12 05:00:32;;;;;;;16.33;3.35;;;2.40;99.40;;;;;;5017380;28;20022;-75
2022/02/12 05:02:57;;;;;;;20.80;3.13;;;2.40;99.40;;;;;;5017175;28;20088;-76
2022/02/12 05:05:23;;;;;;;19.95;4.03;;;2.40;99.40;;;;;;5016924;28;20038;-76
2022/02/12 05:07:49;;;;;;;22.40;4.10;;;2.50;99.40;;;;;;5017165;28;20041;-76
2022/02/12 05:10:14;;;;;;;19.65;3.08;;;2.30;99.30;;;;;;5016874;28;20042;-76
2022/02/12 05:12:40;;;;;;;13.68;2.40;;;2.40;99.40;;;;;;5016822;28;20402;-76
2022/02/12 05:15:07;;;;;;;15.95;3.15;;;2.40;99.40;;;;;;5017433;28;20362;-76
2022/02/12 05:17:32;;;;;;;13.60;3.42;;;2.40;99.40;;;;;;4999388;28;20461;-77
2022/02/12 05:19:58;;;;;;;14.38;3.20;;;2.40;99.50;;;;;;5016900;28;20184;-76
2022/02/12 05:22:24;;;;;;;13.27;3.08;;;2.40;99.60;;;;;;5016757;28;20034;-76
2022/02/12 05:24:50;;;;;;;14.25;3.35;;;2.40;99.60;;;;;;5016490;28;20364;-75
2022/02/12 05:27:15;;;;;;;17.25;3.00;;;2.40;99.60;;;;;;4999784;28;20049;-75
2022/02/12 05:29:41;;;;;;;13.20;2.80;;;2.50;99.50;;;;;;4999316;28;20463;-75
2022/02/12 05:32:07;;;;;;;14.27;2.95;;;2.40;99.50;;;;;;5016808;28;20026;-76
2022/02/12 05:34:32;;;;;;;14.40;2.40;;;2.40;99.60;;;;;;5016775;28;20057;-74
2022/02/12 05:36:58;;;;;;;15.57;2.85;;;2.40;99.40;;;;;;5016443;28;20044;-75
2022/02/12 05:39:24;;;;;;;13.73;2.95;;;2.40;99.50;;;;;;5017477;28;20030;-76
2022/02/12 05:41:50;;;;;;;11.20;2.38;;;2.40;99.60;;;;;;5017166;28;20372;-76
2022/02/12 05:44:15;;;;;;;20.73;3.55;;;2.40;99.60;;;;;;5016724;28;20084;-75
2022/02/12 05:46:41;;;;;;;14.70;3.00;;;2.40;99.40;;;;;;5016772;28;20029;-76
2022/02/12 05:49:07;;;;;;;12.63;2.70;;;2.40;99.30;;;;;;5016344;28;20038;-75
2022/02/12 05:51:33;;;;;;;11.32;2.72;;;2.30;99.40;;;;;;5016998;28;20026;-75
2022/02/12 05:54:00;;;;;;;11.52;2.33;;;2.40;99.70;;;;;;5016777;28;20069;-75
2022/02/12 05:56:26;;;;;;;9.40;2.38;;;2.40;99.60;;;;;;5016414;28;20177;-75
2022/02/12 05:58:52;;;;;;;10.77;2.40;;;2.40;99.60;;;;;;4999742;28;20033;-75
2022/02/12 06:01:18;;;;;;;12.38;2.80;;;2.30;99.40;;;;;;5016576;28;20026;-76
2022/02/12 06:03:43;;;;;;;14.43;2.92;;;2.40;99.60;;;;;;4995423;28;20032;-75
2022/02/12 06:06:09;;;;;;;13.55;2.75;;;2.40;99.50;;;;;;5014124;28;20101;-74
2022/02/12 06:08:35;;;;;;;11.48;2.80;;;2.50;99.50;;;;;;5013134;28;20045;-75
2022/02/12 06:11:03;;;;;;;15.95;2.47;;;2.40;99.30;;;;;;5013433;28;20037;-75
2022/02/12 06:13:29;;;;;;;16.52;3.25;;;2.40;99.40;;;;;;5013177;28;20029;-76
2022/02/12 06:15:54;;;;;;;20.60;3.13;;;2.30;99.30;;;;;;5013195;28;20376;-75
2022/02/12 06:18:20;;;;;;;12.32;2.88;;;2.40;99.40;;;;;;5013698;28;20187;-74
2022/02/12 06:20:46;;;;;;;18.52;2.58;;;2.40;99.30;;;;;;5013071;28;20463;-76
2022/02/12 06:23:12;;;;;;;15.20;2.75;;;2.40;99.30;;;;;;5012874;28;20122;-75
2022/02/12 06:25:37;;;;;;;12.35;2.95;;;2.30;99.50;;;;;;4995620;28;20049;-76
2022/02/12 06:28:04;;;;;;;14.32;2.38;;;2.30;99.30;;;;;;4995587;28;20037;-75
2022/02/12 06:30:31;;;;;;;22.38;3.65;;;2.30;99.30;;;;;;5013396;28;20411;-76
2022/02/12 06:32:59;;;;;;;16.60;3.65;;;2.30;99.40;;;;;;5012838;28;20041;-76
2022/02/12 06:35:28;;;;;;;14.00;3.38;;;2.40;99.30;;;;;;5012809;28;20033;-76
2022/02/12 06:37:56;;;;;;;16.35;4.00;;;2.40;99.20;;;;;;4995614;28;20042;-76
2022/02/12 06:40:22;;;;;;;20.67;3.83;;;2.40;99.10;;;;;;5012850;28;20124;-73
2022/02/12 06:42:49;;;;;;;18.08;3.25;;;2.40;99.10;;;;;;5012772;28;20022;-74
2022/02/12 06:45:15;;;;;;;14.10;2.67;;;2.40;99.30;;;;;;5013429;28;20025;-76
2022/02/12 06:47:41;;;;;;;12.68;2.83;;;2.50;99.10;;;;;;5012549;28;20030;-74
2022/02/12 06:50:07;;;;;;;9.90;2.38;;;2.40;98.90;;;;;;4994987;28;20038;-74
2022/02/12 06:52:33;;;;;;;22.70;2.45;;;2.50;98.90;;;;;;5012502;28;20049;-75
2022/02/12 06:54:58;;;;;;;7.93;2.53;;;2.40;98.90;;;;;;4995026;28;20407;-77
2022/02/12 06:57:24;;;;;;;9.45;1.95;;;2.50;98.90;;;;;;5013076;28;20022;-75
2022/02/12 06:59:50;;;;;;;11.32;2.50;;;2.40;98.80;;;;;;5012506;28;20041;-75
2022/02/12 07:02:17;;;;;;;8.07;2.42;;;2.50;98.80;;;;;;5012471;28;20029;-75
2022/02/12 07:04:43;;;;;;;11.57;2.40;;;2.50;98.70;;;;;;5012448;28;20034;-76
2022/02/12 07:07:09;;;;;;;10.60;2.67;;;2.50;98.70;;;;;;5012344;28;20339;-77
2022/02/12 07:09:34;;;;;;;9.68;2.55;;;2.50;98.60;;;;;;5013160;28;20395;-77
2022/02/12 07:12:00;;;;;;;14.57;2.80;;;2.50;98.70;;;;;;5013805;28;20010;-78
2022/02/12 07:14:25;;;;;;;9.90;2.58;;;2.50;98.70;;;;;;5011868;28;20037;-79
2022/02/12 07:16:51;;;;;;;9.90;2.80;;;2.50;98.70;;;;;;5012250;28;20095;-80
2022/02/12 07:19:17;;;;;;;14.60;3.40;;;2.50;98.70;;;;;;5012432;28;20348;-78
2022/02/12 07:21:42;;;;;;;7.65;2.75;;;2.60;98.70;;;;;;4994428;28;20049;-80
2022/02/12 07:24:08;;;;;;;16.92;3.65;;;2.50;98.60;;;;;;5012379;28;20056;-81
2022/02/12 07:26:34;;;;;;;14.57;2.95;;;2.60;98.70;;;;;;5016076;28;20037;-80
2022/02/12 07:28:59;;;;;;;16.15;3.15;;;2.70;98.70;;;;;;5020454;28;20041;-79
2022/02/12 07:31:25;;;;;;;15.27;3.45;;;2.70;98.60;;;;;;5022465;28;20129;-82
2022/02/12 07:33:50;;;;;;;10.57;2.95;;;2.80;98.50;;;;;;5022554;28;20088;-84
2022/02/12 07:36:16;;;;;;;11.80;2.40;;;2.80;98.50;;;;;;5009018;28;20030;-85
2022/02/12 07:38:43;;;;;;;11.00;2.22;;;2.80;98.40;;;;;;5009631;28;20093;-79
2022/02/12 07:41:09;;;;;;;9.38;2.70;;;2.80;98.30;;;;;;5009870;28;20054;-82
2022/02/12 07:43:35;;;;;;;9.65;2.50;;;2.80;98.40;;;;;;5000200;28;20034;-83
2022/02/12 07:46:02;;;;;;;12.02;2.55;;;2.90;98.40;;;;;;4998619;28;20387;-80
2022/02/12 07:48:28;;;;;;;12.55;2.70;;;3.00;98.40;;;;;;5017752;28;20018;-81
2022/02/12 07:50:54;;;;;;;12.60;2.72;;;3.00;98.30;;;;;;5017214;28;20071;-79
2022/02/12 07:53:20;;;;;;;17.98;2.92;;;2.90;98.10;;;;;;5015756;28;20125;-80
2022/02/12 07:55:46;;;;;;;14.23;2.60;;;3.00;98.10;;;;;;4996104;28;20050;-81
2022/02/12 07:58:12;;;;;;;12.75;2.42;;;3.00;98.00;;;;;;5012157;28;20431;-80
2022/02/12 08:00:37;;;;;;;11.48;2.50;;;3.00;98.20;;;;;;5012072;28;20032;-90
2022/02/12 08:03:04;;;;;;;12.18;3.25;;;3.10;97.90;;;;;;5015525;28;20030;-80
2022/02/12 08:05:30;;;;;;;10.95;2.00;;;3.20;97.80;;;;;;4994326;28;20125;-81
2022/02/12 08:07:55;;;;;;;10.63;2.85;;;3.20;97.70;;;;;;4993761;28;20515;-83
2022/02/12 08:13:05;;;;;;;12.35;2.72;;;3.40;97.70;;;;;;5011875;28;20032;-81
2022/02/12 08:15:31;;;;;;;13.73;2.67;;;3.50;97.50;;;;;;5012572;28;20179;-84
2022/02/12 08:17:58;;;;;;;16.75;2.50;;;3.50;97.60;;;;;;5011678;28;20527;-80
2022/02/12 08:20:24;;;;;;;13.85;3.08;;;3.50;97.20;;;;;;4995061;28;20034;-83
2022/02/12 08:22:51;;;;;;;13.25;2.42;;;3.60;97.10;;;;;;5016956;28;20037;-81
2022/02/12 08:25:17;;;;;;;10.50;2.70;;;3.60;97.10;;;;;;4999973;28;20037;-85
2022/02/12 08:27:43;;;;;;;15.23;3.28;;;3.70;96.90;;;;;;5014876;28;20022;-83
2022/02/12 08:30:09;;;;;;;16.67;2.38;;;3.70;96.90;;;;;;5016329;28;20075;-86
2022/02/12 08:32:41;;;;;;;8.43;2.38;;;3.90;96.70;;;;;;5008438;28;20026;-80
2022/02/12 08:35:14;;;;;;;13.38;2.75;;;3.90;96.40;;;;;;5011709;28;20026;-81
2022/02/12 08:37:44;;;;;;;15.48;3.30;;;3.90;96.10;;;;;;5011310;28;20112;-83
2022/02/12 08:40:12;;;;;;;14.00;2.75;;;4.00;96.30;;;;;;4995754;28;20247;-81
2022/02/12 08:42:40;;;;;;;13.45;2.72;;;4.10;96.20;;;;;;5003346;28;20034;-80
2022/02/12 08:45:07;;;;;;;14.68;2.83;;;4.20;95.80;;;;;;5028273;28;20017;-80
2022/02/12 08:47:33;;;;;;;10.65;2.47;;;4.40;95.90;;;;;;5025634;28;20106;-82
2022/02/12 08:49:59;;;;;;;6.88;2.35;;;4.40;95.70;;;;;;4996256;28;20066;-80
2022/02/12 08:52:25;;;;;;;10.73;2.47;;;4.80;95.50;;;;;;5011239;28;20344;-80
2022/02/12 08:54:51;;;;;;;8.95;2.45;;;5.40;94.70;;;;;;4993688;28;20044;-80
2022/02/12 08:57:18;;;;;;;10.40;2.50;;;6.00;93.60;;;;;;4994035;28;20407;-79
2022/02/12 08:59:44;;;;;;;12.38;2.58;;;6.60;93.40;;;;;;5010889;28;20117;-78
2022/02/12 09:02:11;;;;;;;16.50;2.15;;;6.80;92.60;;;;;;4993401;28;20026;-80
2022/02/12 09:04:37;;;;;;;7.38;1.80;;;7.20;91.70;;;;;;5010812;28;20026;-81
2022/02/12 09:07:03;;;;;;;9.77;2.20;;;7.60;91.60;;;;;;4993338;28;20041;-77
2022/02/12 09:09:29;;;;;;;5.75;1.95;;;7.70;90.90;;;;;;5011329;28;20037;-82
2022/02/12 09:11:57;;;;;;;15.40;1.90;;;7.90;89.80;;;;;;5010671;28;20030;-80
2022/02/12 09:14:23;;;;;;;16.88;2.28;;;8.10;90.00;;;;;;5010746;28;20121;-78
2022/02/12 09:16:49;;;;;;;11.18;1.80;;;8.00;88.00;;;;;;4992644;28;20117;-78
2022/02/12 09:19:15;;;;;;;12.73;1.88;;;8.00;88.20;;;;;;5010734;28;20026;-80
2022/02/12 09:21:40;;;;;;;6.15;1.70;;;8.00;87.90;;;;;;5011001;28;20018;-81
2022/02/12 09:24:06;;;;;;;14.38;2.13;;;8.00;87.70;;;;;;4993659;28;20038;-79
2022/02/12 09:26:33;;;;;;;7.80;2.22;;;8.10;87.60;;;;;;4993236;28;20368;-81
2022/02/12 09:29:00;;;;;;;10.10;2.15;;;7.90;85.50;;;;;;4990389;28;20042;-82
2022/02/12 09:31:26;;;;;;;12.20;2.45;;;8.00;85.90;;;;;;4993500;28;20368;-80
2022/02/12 09:33:52;;;;;;;12.70;1.45;;;8.30;86.90;;;;;;5011073;28;20068;-80
2022/02/12 09:36:17;;;;;;;8.98;2.25;;;8.30;84.60;;;;;;4993892;28;20026;-81
2022/02/12 09:38:43;;;;;;;7.57;1.75;;;8.20;84.40;;;;;;5013752;28;20037;-82
2022/02/12 09:41:11;;;;;;;9.65;1.65;;;8.20;84.20;;;;;;5014597;28;20239;-81
2022/02/12 09:43:39;;;;;;;15.93;1.80;;;8.10;83.60;;;;;;4996489;28;20350;-76
2022/02/12 09:46:04;;;;;;;10.80;2.10;;;8.00;82.50;;;;;;5014072;28;20056;-79
2022/02/12 09:48:34;;;;;;;5.10;1.35;;;7.90;83.90;;;;;;5014315;28;20441;-76
2022/02/12 09:51:01;;;;;;;8.73;1.70;;;7.80;82.20;;;;;;5014256;28;20176;-77
2022/02/12 09:53:29;;;;;;;7.22;1.98;;;7.80;82.10;;;;;;5013897;28;20040;-78
2022/02/12 09:55:55;;;;;;;;;;;7.60;81.70;;;;;;5014486;28;20116;-75
2022/02/12 09:58:20;;;;;;;7.35;1.40;;;7.60;81.70;;;;;;5013742;28;19920;-77
2022/02/12 10:00:46;;;;;;;10.00;1.77;;;7.60;82.40;;;;;;5013996;28;20018;-83
2022/02/12 10:03:12;;;;;;;11.13;1.50;;;7.60;81.80;;;;;;4996834;28;20069;-80
2022/02/12 10:05:42;;;;;;;6.20;1.73;;;7.50;82.30;;;;;;5013885;28;20049;-83
2022/02/12 10:08:15;;;;;;;8.02;1.95;;;7.70;82.20;;;;;;5013704;28;20050;-82
2022/02/12 10:10:42;;;;;;;11.55;1.60;;;7.70;81.90;;;;;;5013792;28;20180;-81
2022/02/12 10:13:16;;;;;;;12.65;1.92;;;8.00;82.90;;;;;;4996226;28;20040;-85
2022/02/12 10:15:48;;;;;;;12.57;4.43;;;8.20;82.60;;;;;;5013599;28;20034;-81
2022/02/12 10:18:14;;;;;;;12.77;2.40;;;8.60;82.00;;;;;;5014067;28;20443;-81
2022/02/12 10:20:42;;;;;;;12.82;3.17;;;9.00;80.60;;;;;;5013538;28;20054;-79
2022/02/12 10:23:10;;;;;;;6.88;1.88;;;9.20;79.30;;;;;;4995607;28;20030;-83
2022/02/12 10:25:37;;;;;;;10.52;1.73;;;9.10;79.70;;;;;;4995795;28;20049;-80
2022/02/12 10:28:05;;;;;;;8.40;2.00;;;9.10;79.80;;;;;;5013218;28;20034;-82
2022/02/12 10:30:31;;;;;;;9.80;1.80;;;9.30;79.80;;;;;;4996014;28;20033;-84
2022/02/12 10:32:58;;;;;;;10.23;2.15;;;10.00;78.80;;;;;;5013014;28;20097;-78
2022/02/12 10:35:24;;;;;;;10.77;1.65;;;10.60;76.90;;;;;;5013268;28;20026;-81
2022/02/12 10:37:50;;;;;;;4.40;1.90;;;10.80;75.80;;;;;;5013036;28;20037;-79
2022/02/12 10:40:17;;;;;;;10.60;1.80;;;11.10;75.10;;;;;;4995869;28;20049;-77
2022/02/12 10:42:46;;;;;;;9.57;1.98;;;10.90;74.70;;;;;;4995829;28;20026;-78
2022/02/12 10:45:13;;;;;;;11.23;2.03;;;10.80;74.60;;;;;;4996162;28;20057;-76
2022/02/12 10:47:42;;;;;;;6.70;1.92;;;10.90;74.40;;;;;;4995598;28;20037;-77
2022/02/12 10:50:07;;;;;;;;;;;10.60;74.20;;;;;;5013141;28;20120;-77
2022/02/12 10:52:45;;;;;;;10.68;2.42;;;10.40;75.30;;;;;;5012156;28;20005;-78
2022/02/12 10:55:34;;;;;;;10.60;2.25;;;10.60;75.70;;;;;;5013098;28;20433;-76
2022/02/12 10:58:08;;;;;;;14.85;2.08;;;11.10;75.70;;;;;;5012737;28;20042;-77
2022/02/12 11:00:36;;;;;;;10.13;2.05;;;11.40;75.00;;;;;;4995310;28;20058;-78
2022/02/12 11:03:05;;;;;;;6.78;1.88;;;11.50;75.20;;;;;;4995653;28;20117;-76
2022/02/12 11:05:34;;;;;;;10.10;1.90;;;11.40;74.80;;;;;;5013119;28;20038;-76
2022/02/12 11:08:01;;;;;;;15.70;2.72;;;11.40;74.90;;;;;;5012701;28;20113;-75
2022/02/12 11:10:27;;;;;;;9.30;2.20;;;11.80;76.00;;;;;;4995045;28;20033;-76
2022/02/12 11:12:52;;;;;;;10.05;2.00;;;11.50;73.90;;;;;;5012240;28;20045;-75
2022/02/12 11:15:18;;;;;;;11.88;2.50;;;11.50;75.80;;;;;;5013347;28;20026;-75
2022/02/12 11:17:46;;;;;;;10.52;2.50;;;11.50;74.90;;;;;;5012328;28;20452;-75
2022/02/12 11:20:13;;;;;;;11.90;2.40;;;11.20;74.60;;;;;;4994502;28;20523;-75
2022/02/12 11:22:40;;;;;;;27.90;9.63;;;11.30;74.40;;;;;;5011929;28;20052;-76
2022/02/12 11:25:34;;;;;;;8.32;2.90;;;11.30;73.90;;;;;;5011644;28;20038;-73
2022/02/12 11:28:11;;;;;;;9.73;2.42;;;11.60;74.90;;;;;;5011940;28;20033;-75
2022/02/12 11:30:38;;;;;;;13.02;2.15;;;11.70;73.50;;;;;;5011731;28;20037;-73
2022/02/12 11:33:20;;;;;;;13.05;2.20;;;11.80;72.50;;;;;;5012375;28;20087;-74
2022/02/12 11:36:10;;;;;;;7.38;2.47;;;11.50;72.40;;;;;;5012013;28;20038;-73
2022/02/12 11:38:41;;;;;;;11.40;2.25;;;11.80;72.60;;;;;;5011852;28;20037;-75
2022/02/12 11:41:24;;;;;;;10.02;2.42;;;12.00;71.70;;;;;;5011643;28;20042;-73
2022/02/12 11:43:51;;;;;;;12.10;2.35;;;11.70;70.30;;;;;;5011594;28;20034;-74
2022/02/12 11:46:51;;;;;;;9.15;1.80;;;12.10;68.80;;;;;;5011421;28;20030;-75
2022/02/12 11:49:31;;;;;;;15.18;2.10;;;12.20;67.60;;;;;;4994393;28;20041;-77
2022/02/12 11:52:04;;;;;;;8.05;2.08;;;12.20;69.40;;;;;;5011888;28;20452;-79
2022/02/12 11:54:58;;;;;;;7.35;1.90;;;12.00;66.60;;;;;;5012157;28;20467;-75
2022/02/12 11:57:27;;;;;;;10.88;2.60;;;11.60;66.60;;;;;;5011870;28;20349;-77
2022/02/12 12:00:13;;;;;;;10.77;2.63;;;11.30;65.70;;;;;;4993690;28;20026;-76
2022/02/12 12:02:40;;;;;;;7.07;1.75;;;11.40;66.40;;;;;;4993499;28;20395;-76
2022/02/12 12:05:16;;;;;;;8.63;1.60;;;11.20;65.80;;;;;;5011380;28;20129;-75
2022/02/12 12:08:07;;;;;;;7.70;1.58;;;10.90;65.40;;;;;;4994541;28;20038;-76
2022/02/12 12:10:36;;;;;;;5.70;1.27;;;10.70;66.40;;;;;;5011506;28;20042;-77
2022/02/12 12:13:10;;;;;;;7.45;1.70;;;10.40;66.20;;;;;;5011098;28;20468;-76
2022/02/12 12:15:37;;;;;;;10.13;1.88;;;10.40;66.60;;;;;;5011341;28;20153;-77
2022/02/12 12:18:05;;;;;;;7.82;2.25;;;10.40;66.20;;;;;;5011932;28;20115;-77
2022/02/12 12:20:39;;;;;;;10.13;2.00;;;10.20;65.40;;;;;;5011205;28;20270;-77
2022/02/12 12:23:16;;;;;;;12.98;2.53;;;10.10;65.70;;;;;;5011517;28;20116;-77
2022/02/12 12:26:06;;;;;;;6.88;2.08;;;9.90;67.50;;;;;;5011187;28;20122;-76
2022/02/12 12:28:42;;;;;;;8.15;1.80;;;9.60;66.60;;;;;;5011287;28;20073;-76
2022/02/12 12:31:11;;;;;;;8.20;1.52;;;9.50;67.20;;;;;;5011543;28;20117;-78
2022/02/12 12:33:41;;;;;;;6.38;1.45;;;9.50;67.40;;;;;;5011124;28;20475;-76
2022/02/12 12:36:09;;;;;;;8.30;1.92;;;9.40;67.50;;;;;;4994450;28;20053;-77
2022/02/12 12:38:39;;;;;;;8.13;1.95;;;9.40;67.50;;;;;;5011196;28;20025;-76
2022/02/12 12:41:31;;;;;;;3.53;1.70;;;9.20;67.60;;;;;;5011180;28;20026;-78
2022/02/12 12:44:13;;;;;;;11.45;1.63;;;9.20;67.80;;;;;;5011120;28;20118;-76
2022/02/12 12:46:41;;;;;;;9.65;2.55;;;9.40;68.40;;;;;;5011047;28;20034;-78
2022/02/12 12:49:07;;;;;;;;;;;9.50;67.80;;;;;;5011378;28;20057;-77
2022/02/12 12:51:35;;;;;;;4.53;1.58;;;9.60;67.80;;;;;;5010504;28;20243;-78
2022/02/12 12:54:01;;;;;;;6.93;1.52;;;9.50;65.80;;;;;;5011218;28;20367;-76
2022/02/12 12:56:28;;;;;;;7.90;2.15;;;9.50;65.50;;;;;;5011072;28;20480;-77
2022/02/12 12:59:10;;;;;;;8.57;1.70;;;9.50;66.60;;;;;;4993540;28;20037;-78